createdAt,value
2023-02-24T00:49:42.852Z,6.22
2023-02-24T00:55:00.823Z,6.72
2023-02-24T01:00:21.945Z,7.32
2023-02-24T01:08:38.699Z,5.95
2023-02-24T01:11:24.454Z,6.55
2023-02-24T01:17:26.651Z,6.43
2023-02-24T01:20:19.743Z,6.82
2023-02-24T01:23:32.284Z,6.78
2023-02-24T01:26:00.052Z,5.63
2023-02-24T01:28:27.179Z,6.07
2023-02-24T01:31:13.955Z,6.38
2023-02-24T01:33:41.903Z,6.32
2023-02-24T01:36:10.886Z,6.45
2023-02-24T01:42:22.019Z,6.60
2023-02-24T01:44:49.019Z,6.47
2023-02-24T01:47:56.703Z,6.13
2023-02-24T01:50:26.171Z,6.25
2023-02-24T01:52:58.903Z,6.68
2023-02-24T01:55:49.236Z,6.25
2023-02-24T01:58:34.642Z,6.32
2023-02-24T02:01:08.758Z,6.35
2023-02-24T02:07:28.495Z,5.63
2023-02-24T02:09:57.244Z,6.78
2023-02-24T02:12:24.549Z,6.03
2023-02-24T02:15:15.293Z,6.05
2023-02-24T02:18:57.847Z,5.53
2023-02-24T02:24:29.790Z,6.85
2023-02-24T02:27:21.187Z,6.50
2023-02-24T02:30:14.317Z,5.32
2023-02-24T02:33:08.663Z,6.47
2023-02-24T02:36:07.233Z,6.28
2023-02-24T02:39:07.610Z,5.95
2023-02-24T02:42:06.663Z,5.82
2023-02-24T02:48:23.623Z,5.88
2023-02-24T02:50:56.406Z,6.60
2023-02-24T02:57:02.895Z,6.00
2023-02-24T02:59:32.676Z,6.30
2023-02-24T03:02:11.861Z,5.88
2023-02-24T03:05:02.523Z,6.53
2023-02-24T03:07:37.696Z,6.30
2023-02-24T03:10:17.750Z,6.32
2023-02-24T03:12:48.137Z,5.50
2023-02-24T03:15:17.616Z,5.75
2023-02-24T03:18:29.141Z,6.28
2023-02-24T03:23:50.869Z,6.25
2023-02-24T03:26:23.514Z,5.90
2023-02-24T03:29:11.544Z,5.95
2023-02-24T03:31:54.302Z,5.78
2023-02-24T03:34:27.756Z,5.38
2023-02-24T03:36:59.931Z,5.82
2023-02-24T03:42:59.653Z,6.10
2023-02-24T03:45:27.941Z,6.05
2023-02-24T03:47:56.215Z,6.15
2023-02-24T03:53:50.404Z,5.95
2023-02-24T03:56:46.867Z,5.80
2023-02-24T03:59:42.419Z,6.68
2023-02-24T04:02:24.249Z,6.00
2023-02-24T04:05:03.000Z,5.43
2023-02-24T04:07:41.756Z,5.70
2023-02-24T04:12:57.725Z,5.82
2023-02-24T04:15:38.043Z,6.00
2023-02-24T04:18:19.828Z,6.07
2023-02-24T04:20:53.339Z,6.40
2023-02-24T04:23:26.886Z,5.53
2023-02-24T04:25:57.126Z,5.38
2023-02-24T04:28:25.629Z,6.15
2023-02-24T04:30:56.243Z,6.07
2023-02-24T04:33:24.578Z,5.78
2023-02-24T04:36:05.023Z,5.70
2023-02-24T04:38:31.890Z,6.13
2023-02-24T04:40:58.777Z,6.20
2023-02-24T04:43:25.697Z,6.05
2023-02-24T04:45:52.745Z,6.00
2023-02-24T04:48:30.298Z,5.72
2023-02-24T04:51:06.396Z,5.90
2023-02-24T04:53:33.199Z,5.57
2023-02-24T04:56:09.775Z,6.28
2023-02-24T04:58:46.507Z,6.25
2023-02-24T05:01:13.506Z,6.03
2023-02-24T05:03:45.119Z,5.70
2023-02-24T05:06:16.103Z,5.38
2023-02-24T05:08:43.616Z,6.28
2023-02-24T05:15:11.036Z,5.65
2023-02-24T05:17:39.864Z,5.68
2023-02-24T05:23:06.619Z,6.35
2023-02-24T05:28:05.753Z,5.38
2023-02-24T05:31:26.821Z,5.85
2023-02-24T05:37:10.765Z,5.93
2023-02-24T05:39:49.794Z,5.72
2023-02-24T05:45:31.659Z,6.18
2023-02-24T05:47:58.440Z,5.85
2023-02-24T05:50:28.594Z,5.85
2023-02-24T05:53:03.469Z,6.30
2023-02-24T05:55:32.012Z,6.05
2023-02-24T06:01:18.154Z,5.85
2023-02-24T06:03:49.321Z,6.07
2023-02-24T06:07:04.525Z,5.50
2023-02-24T06:09:31.276Z,6.50
2023-02-24T06:18:52.672Z,6.68
2023-02-24T06:21:20.133Z,6.28
2023-02-24T06:23:56.553Z,6.20
2023-02-24T06:31:41.950Z,6.60
2023-02-24T06:34:11.036Z,6.68
2023-02-24T06:36:38.328Z,5.78
2023-02-24T06:45:08.806Z,6.03
2023-02-24T06:47:35.564Z,7.38
2023-02-24T06:50:02.458Z,5.97
2023-02-24T06:52:30.914Z,6.15
2023-02-24T06:58:07.167Z,6.45
2023-02-24T07:00:40.889Z,6.57
2023-02-24T07:09:39.773Z,5.90
2023-02-24T07:15:22.708Z,6.10
2023-02-24T07:21:39.670Z,6.30
2023-02-24T07:24:24.881Z,5.97
2023-02-24T07:33:14.448Z,6.30
2023-02-24T07:35:42.462Z,5.72
2023-02-24T07:38:09.688Z,6.65
2023-02-24T07:40:36.516Z,6.18
2023-02-24T07:43:27.377Z,5.80
2023-02-24T07:48:40.592Z,5.85
2023-02-24T07:54:50.213Z,5.68
2023-02-24T07:57:19.099Z,6.28
2023-02-24T08:02:31.450Z,5.82
2023-02-24T08:06:02.074Z,5.72
2023-02-24T08:08:29.214Z,5.70
2023-02-24T08:14:23.666Z,5.85
2023-02-24T08:16:59.353Z,6.55
2023-02-24T08:19:39.505Z,5.85
2023-02-24T08:22:37.648Z,6.07
2023-02-24T08:25:08.267Z,6.30
2023-02-24T08:27:43.412Z,5.97
2023-02-24T08:30:29.970Z,5.95
2023-02-24T08:32:58.467Z,6.53
2023-02-24T08:35:32.149Z,5.45
2023-02-24T08:41:18.226Z,6.20
2023-02-24T08:43:47.556Z,6.25
2023-02-24T08:47:15.367Z,6.00
2023-02-24T08:49:42.249Z,6.13
2023-02-24T08:52:09.016Z,5.90
2023-02-24T08:54:49.250Z,6.13
2023-02-24T08:57:26.024Z,6.35
2023-02-24T08:59:57.880Z,6.00
2023-02-24T09:02:29.586Z,6.05
2023-02-24T09:07:36.236Z,8.05
2023-02-24T09:10:05.884Z,7.68
2023-02-24T09:12:32.767Z,6.95
2023-02-24T09:20:56.440Z,6.53
2023-02-24T09:23:29.972Z,6.97
2023-02-24T09:28:48.578Z,8.13
2023-02-24T09:32:04.435Z,6.72
2023-02-24T09:43:24.505Z,6.60
2023-02-24T09:46:16.258Z,7.10
2023-02-24T09:49:05.316Z,6.80
2023-02-24T09:51:42.275Z,6.47
2023-02-24T09:54:24.814Z,6.38
2023-02-24T10:00:01.634Z,7.75
2023-02-24T10:02:46.624Z,6.10
2023-02-24T10:05:49.557Z,5.97
2023-02-24T10:08:32.512Z,7.07
2023-02-24T10:17:55.623Z,6.60
2023-02-24T10:20:40.567Z,6.68
2023-02-24T10:27:00.791Z,6.50
2023-02-24T10:29:43.364Z,6.50
2023-02-24T10:32:35.528Z,6.95
2023-02-24T10:35:03.281Z,6.93
2023-02-24T10:37:30.261Z,8.25
2023-02-24T10:40:10.280Z,7.90
2023-02-24T10:42:48.860Z,8.40
2023-02-24T10:48:07.344Z,8.10
2023-02-24T10:50:55.962Z,9.00
2023-02-24T10:53:39.348Z,8.32
2023-02-24T10:56:40.447Z,8.10
2023-02-24T10:59:41.875Z,8.55
2023-02-24T11:02:24.976Z,9.27
2023-02-24T11:07:33.735Z,8.38
2023-02-24T11:10:15.013Z,8.88
2023-02-24T11:13:32.726Z,8.88
2023-02-24T11:16:19.859Z,8.88
2023-02-24T11:18:52.494Z,8.45
2023-02-24T11:21:20.155Z,8.98
2023-02-24T11:23:51.324Z,9.30
2023-02-24T11:26:38.499Z,8.57
2023-02-24T11:29:49.511Z,9.68
2023-02-24T11:32:51.581Z,8.82
2023-02-24T11:38:07.908Z,9.02
2023-02-24T11:44:28.390Z,9.65
2023-02-24T11:56:27.328Z,9.27
2023-02-24T11:59:25.264Z,9.48
2023-02-24T12:02:18.102Z,9.68
2023-02-24T12:05:00.404Z,9.15
2023-02-24T12:08:02.183Z,9.90
2023-02-24T12:10:36.746Z,10.13
2023-02-24T12:13:15.692Z,9.80
2023-02-24T12:16:12.423Z,9.90
2023-02-24T12:19:00.041Z,9.98
2023-02-24T12:27:43.853Z,10.23
2023-02-24T12:30:34.124Z,9.88
2023-02-24T12:33:23.429Z,9.43
2023-02-24T12:39:14.923Z,9.23
2023-02-24T12:44:40.393Z,9.02
2023-02-24T12:47:16.602Z,9.35
2023-02-24T12:49:54.103Z,9.38
2023-02-24T12:52:34.433Z,10.05
2023-02-24T12:58:40.578Z,8.90
2023-02-24T13:01:32.182Z,9.27
2023-02-24T13:04:17.365Z,9.27
2023-02-24T13:07:10.292Z,8.55
2023-02-24T13:09:56.576Z,8.45
2023-02-24T13:12:55.838Z,8.27
2023-02-24T13:15:25.436Z,9.07
2023-02-24T13:17:55.309Z,9.13
2023-02-24T13:20:29.758Z,10.18
2023-02-24T13:22:57.066Z,8.73
2023-02-24T13:28:36.330Z,10.00
2023-02-24T13:31:40.754Z,9.00
2023-02-24T13:34:28.960Z,10.00
2023-02-24T13:36:56.798Z,9.10
2023-02-24T13:39:37.764Z,9.10
2023-02-24T13:45:19.448Z,7.97
2023-02-24T13:48:01.610Z,8.98
2023-02-24T13:51:34.085Z,9.45
2023-02-24T13:54:30.203Z,9.02
2023-02-24T14:03:31.184Z,8.65
2023-02-24T14:05:59.508Z,13.30
2023-02-24T14:08:38.297Z,11.55
2023-02-24T14:11:10.135Z,15.45
2023-02-24T14:13:37.563Z,13.88
2023-02-24T14:18:38.765Z,14.45
2023-02-24T14:21:05.779Z,14.52
2023-02-24T14:23:34.603Z,14.43
2023-02-24T14:29:20.777Z,14.23
2023-02-24T14:32:02.449Z,14.43
2023-02-24T14:41:09.217Z,13.35
2023-02-24T14:43:52.263Z,13.43
2023-02-24T14:46:19.484Z,13.07
2023-02-24T14:55:06.415Z,11.32
2023-02-24T14:58:04.207Z,11.82
2023-02-24T15:04:56.258Z,12.15
2023-02-24T15:07:28.293Z,11.38
2023-02-24T15:09:55.989Z,10.43
2023-02-24T15:12:34.956Z,11.10
2023-02-24T15:15:09.093Z,9.75
2023-02-24T15:17:40.886Z,9.57
2023-02-24T15:20:34.665Z,10.05
2023-02-24T15:28:07.337Z,9.50
2023-02-24T15:30:40.081Z,8.65
2023-02-24T15:33:23.410Z,8.95
2023-02-24T15:35:56.535Z,10.20
2023-02-24T15:38:43.411Z,9.57
2023-02-24T15:41:11.637Z,8.93
2023-02-24T15:43:47.571Z,8.65
2023-02-24T15:46:25.961Z,8.63
2023-02-24T15:51:35.287Z,8.38
2023-02-24T15:54:03.565Z,7.93
2023-02-24T15:56:33.756Z,8.63
2023-02-24T15:59:02.623Z,8.48
2023-02-24T16:01:33.560Z,7.95
2023-02-24T16:04:01.147Z,7.65
2023-02-24T16:06:28.826Z,8.10
2023-02-24T16:08:57.044Z,7.20
2023-02-24T16:11:28.761Z,9.00
2023-02-24T16:14:17.954Z,8.13
2023-02-24T16:16:47.832Z,7.45
2023-02-24T16:19:16.189Z,7.45
2023-02-24T16:22:02.218Z,7.38
2023-02-24T16:24:29.108Z,6.70
2023-02-24T16:26:55.906Z,8.35
2023-02-24T16:29:46.264Z,7.35
2023-02-24T16:32:14.385Z,6.70
2023-02-24T16:34:57.276Z,6.70
2023-02-24T16:37:28.486Z,7.72
2023-02-24T16:40:01.183Z,6.57
2023-02-24T16:42:27.958Z,6.57
2023-02-24T16:44:54.669Z,6.05
2023-02-24T16:47:24.206Z,6.15
2023-02-24T16:49:55.398Z,6.07
2023-02-24T16:56:07.820Z,6.13
2023-02-24T16:58:35.097Z,5.97
2023-02-24T17:01:04.352Z,6.32
2023-02-24T17:03:46.582Z,5.82
2023-02-24T17:06:13.760Z,6.10
2023-02-24T17:08:45.663Z,5.95
2023-02-24T17:11:18.494Z,6.35
2023-02-24T17:14:06.203Z,6.78
2023-02-24T17:16:33.158Z,5.95
2023-02-24T17:19:02.388Z,6.25
2023-02-24T17:21:29.125Z,6.22
2023-02-24T17:23:58.640Z,6.22
2023-02-24T17:26:34.685Z,6.00
2023-02-24T17:29:01.434Z,6.55
2023-02-24T17:31:31.647Z,6.35
2023-02-24T17:34:31.383Z,5.97
2023-02-24T17:37:04.390Z,5.88
2023-02-24T17:39:31.154Z,6.10
2023-02-24T17:41:58.020Z,5.72
2023-02-24T17:44:24.962Z,6.13
2023-02-24T17:46:55.013Z,6.35
2023-02-24T17:49:21.752Z,5.68
2023-02-24T17:54:30.313Z,5.75
2023-02-24T17:59:45.952Z,5.45
2023-02-24T18:02:14.636Z,6.30
2023-02-24T18:05:02.815Z,6.28
2023-02-24T18:07:29.625Z,5.60
2023-02-24T18:09:59.417Z,5.45
2023-02-24T18:12:29.406Z,5.15
2023-02-24T18:15:07.219Z,5.60
2023-02-24T18:18:15.568Z,5.90
2023-02-24T18:20:43.715Z,5.40
2023-02-24T18:23:13.488Z,6.20
2023-02-24T18:25:40.271Z,4.75
2023-02-24T18:28:26.180Z,6.03
2023-02-24T18:30:52.987Z,6.13
2023-02-24T18:36:53.319Z,5.90
2023-02-24T18:39:20.205Z,6.25
2023-02-24T18:41:52.993Z,5.50
2023-02-24T18:44:19.757Z,5.45
2023-02-24T18:49:39.974Z,5.40
2023-02-24T18:52:13.132Z,4.85
2023-02-24T18:55:34.430Z,5.18
2023-02-24T19:04:08.614Z,4.80
2023-02-24T19:06:36.665Z,4.95
2023-02-24T19:12:44.928Z,5.57
2023-02-24T19:15:11.896Z,5.32
2023-02-24T19:17:38.867Z,6.20
2023-02-24T19:21:11.756Z,5.03
2023-02-24T19:23:38.780Z,5.57
2023-02-24T19:26:07.647Z,5.15
2023-02-24T19:31:19.377Z,5.60
2023-02-24T19:33:56.180Z,7.00
2023-02-24T19:39:14.273Z,11.10
2023-02-24T19:41:49.653Z,11.50
2023-02-24T19:44:18.299Z,11.85
2023-02-24T19:46:56.790Z,10.80
2023-02-24T19:53:12.259Z,11.95
2023-02-24T19:55:40.574Z,11.90
2023-02-24T20:01:13.872Z,11.57
2023-02-24T20:03:42.479Z,11.95
2023-02-24T20:06:26.184Z,11.20
2023-02-24T20:08:56.390Z,10.40
2023-02-24T20:11:24.429Z,11.30
2023-02-24T20:16:54.125Z,10.55
2023-02-24T20:19:39.929Z,10.90
2023-02-24T20:22:06.776Z,10.75
2023-02-24T20:24:35.042Z,10.35
2023-02-24T20:28:00.252Z,10.35
2023-02-24T20:30:27.162Z,10.13
2023-02-24T20:32:56.333Z,10.43
2023-02-24T20:36:01.470Z,10.85
2023-02-24T20:38:29.111Z,10.60
2023-02-24T20:41:00.527Z,10.63
2023-02-24T20:43:27.978Z,10.30
2023-02-24T20:55:13.809Z,9.18
2023-02-24T20:57:43.402Z,10.30
2023-02-24T21:00:11.050Z,10.50
2023-02-24T21:09:06.331Z,9.63
2023-02-24T21:14:03.316Z,9.77
2023-02-24T21:16:51.580Z,9.80
2023-02-24T21:19:43.760Z,9.95
2023-02-24T21:22:10.716Z,8.43
2023-02-24T21:25:13.131Z,8.40
2023-02-24T21:27:40.177Z,9.05
2023-02-24T21:30:08.563Z,8.30
2023-02-24T21:32:37.099Z,8.02
2023-02-24T21:35:04.718Z,8.95
2023-02-24T21:37:33.215Z,9.20
2023-02-24T21:42:46.953Z,8.50
2023-02-24T21:45:20.179Z,8.50
2023-02-24T21:47:46.874Z,8.30
2023-02-24T21:53:18.782Z,7.75
2023-02-24T21:59:45.143Z,7.72
2023-02-24T22:02:15.545Z,8.20
2023-02-24T22:07:36.806Z,8.18
2023-02-24T22:10:04.559Z,8.45
2023-02-24T22:12:31.610Z,8.00
2023-02-24T22:14:58.362Z,9.38
2023-02-24T22:18:25.237Z,9.18
2023-02-24T22:20:54.900Z,7.85
2023-02-24T22:23:21.657Z,8.93
2023-02-24T22:25:48.448Z,8.45
2023-02-24T22:28:15.207Z,7.85
2023-02-24T22:30:42.030Z,7.70
2023-02-24T22:33:08.820Z,7.55
2023-02-24T22:35:52.108Z,7.53
2023-02-24T22:38:18.841Z,7.65
2023-02-24T22:40:45.606Z,8.25
2023-02-24T22:48:06.231Z,8.05
2023-02-24T22:51:01.106Z,7.28
2023-02-24T22:53:30.246Z,7.15
2023-02-24T22:55:57.380Z,7.90
2023-02-24T22:58:34.466Z,7.45
2023-02-24T23:01:01.258Z,7.68
2023-02-24T23:03:32.847Z,8.18
2023-02-24T23:06:06.021Z,7.53
2023-02-24T23:08:47.177Z,7.03
2023-02-24T23:11:29.949Z,7.28
2023-02-24T23:14:07.078Z,7.32
2023-02-24T23:16:35.113Z,6.93
2023-02-24T23:19:07.838Z,7.63
2023-02-24T23:21:38.219Z,7.10
2023-02-24T23:24:06.715Z,6.97
2023-02-24T23:26:48.404Z,6.72
2023-02-24T23:29:17.606Z,6.28
2023-02-24T23:32:30.144Z,7.18
2023-02-24T23:35:19.084Z,6.82
2023-02-24T23:37:45.777Z,6.88
2023-02-24T23:43:11.092Z,6.55
2023-02-24T23:45:41.654Z,7.65
2023-02-24T23:48:10.551Z,6.78
2023-02-24T23:54:54.074Z,6.32
2023-02-24T23:57:21.989Z,6.57
2023-02-24T23:59:59.164Z,6.35
